sensor_id;sensor_type;location;lat;lon;timestamp;P1;durP1;ratioP1;P2;durP2;ratioP2
61915;SDS011;47868;51.326;6.550;2023-02-27T00:02:21;5.50;;;2.93;;
61915;SDS011;47868;51.326;6.550;2023-02-27T00:04:46;4.77;;;3.27;;
61915;SDS011;47868;51.326;6.550;2023-02-27T00:07:12;4.77;;;3.20;;
61915;SDS011;47868;51.326;6.550;2023-02-27T00:09:38;5.70;;;3.63;;
61915;SDS011;47868;51.326;6.550;2023-02-27T00:12:06;8.90;;;3.53;;
61915;SDS011;47868;51.326;6.550;2023-02-27T00:14:34;3.83;;;3.23;;
61915;SDS011;47868;51.326;6.550;2023-02-27T00:17:00;6.47;;;3.00;;
61915;SDS011;47868;51.326;6.550;2023-02-27T00:19:25;4.70;;;3.43;;
61915;SDS011;47868;51.326;6.550;2023-02-27T00:21:51;5.87;;;3.20;;
61915;SDS011;47868;51.326;6.550;2023-02-27T00:24:17;6.67;;;3.10;;
61915;SDS011;47868;51.326;6.550;2023-02-27T00:26:43;4.23;;;3.40;;
61915;SDS011;47868;51.326;6.550;2023-02-27T00:29:08;6.30;;;3.33;;
61915;SDS011;47868;51.326;6.550;2023-02-27T00:31:34;8.10;;;3.23;;
61915;SDS011;47868;51.326;6.550;2023-02-27T00:34:00;6.47;;;3.40;;
61915;SDS011;47868;51.326;6.550;2023-02-27T00:36:26;6.17;;;3.60;;
61915;SDS011;47868;51.326;6.550;2023-02-27T00:38:51;5.47;;;3.10;;
61915;SDS011;47868;51.326;6.550;2023-02-27T00:41:17;5.30;;;3.17;;
61915;SDS011;47868;51.326;6.550;2023-02-27T00:43:42;6.03;;;3.23;;
61915;SDS011;47868;51.326;6.550;2023-02-27T00:46:08;7.77;;;3.37;;
61915;SDS011;47868;51.326;6.550;2023-02-27T00:48:34;4.47;;;3.50;;
61915;SDS011;47868;51.326;6.550;2023-02-27T00:51:00;7.63;;;3.47;;
61915;SDS011;47868;51.326;6.550;2023-02-27T00:53:26;6.90;;;3.10;;
61915;SDS011;47868;51.326;6.550;2023-02-27T00:55:51;7.87;;;3.20;;
61915;SDS011;47868;51.326;6.550;2023-02-27T00:58:17;5.40;;;3.43;;
61915;SDS011;47868;51.326;6.550;2023-02-27T01:00:42;4.87;;;3.37;;
61915;SDS011;47868;51.326;6.550;2023-02-27T01:03:08;4.93;;;3.57;;
61915;SDS011;47868;51.326;6.550;2023-02-27T01:05:34;6.27;;;3.30;;
61915;SDS011;47868;51.326;6.550;2023-02-27T01:07:59;5.43;;;3.20;;
61915;SDS011;47868;51.326;6.550;2023-02-27T01:10:25;4.90;;;3.27;;
61915;SDS011;47868;51.326;6.550;2023-02-27T01:12:51;5.37;;;3.33;;
61915;SDS011;47868;51.326;6.550;2023-02-27T01:15:16;5.53;;;3.37;;
61915;SDS011;47868;51.326;6.550;2023-02-27T01:17:42;5.10;;;3.47;;
61915;SDS011;47868;51.326;6.550;2023-02-27T01:20:09;4.90;;;3.07;;
61915;SDS011;47868;51.326;6.550;2023-02-27T01:22:36;7.10;;;3.50;;
61915;SDS011;47868;51.326;6.550;2023-02-27T01:25:02;5.03;;;3.10;;
61915;SDS011;47868;51.326;6.550;2023-02-27T01:27:29;7.53;;;3.10;;
61915;SDS011;47868;51.326;6.550;2023-02-27T01:29:55;5.37;;;3.83;;
61915;SDS011;47868;51.326;6.550;2023-02-27T01:32:21;8.63;;;3.83;;
61915;SDS011;47868;51.326;6.550;2023-02-27T01:34:47;6.93;;;3.57;;
61915;SDS011;47868;51.326;6.550;2023-02-27T01:37:13;12.20;;;4.13;;
61915;SDS011;47868;51.326;6.550;2023-02-27T01:39:39;3.73;;;3.10;;
61915;SDS011;47868;51.326;6.550;2023-02-27T01:42:05;7.00;;;3.57;;
61915;SDS011;47868;51.326;6.550;2023-02-27T01:44:33;8.50;;;4.00;;
61915;SDS011;47868;51.326;6.550;2023-02-27T01:47:17;8.00;;;4.03;;
61915;SDS011;47868;51.326;6.550;2023-02-27T01:49:43;4.67;;;3.70;;
61915;SDS011;47868;51.326;6.550;2023-02-27T01:52:09;6.00;;;3.37;;
61915;SDS011;47868;51.326;6.550;2023-02-27T01:54:38;6.70;;;3.87;;
61915;SDS011;47868;51.326;6.550;2023-02-27T01:57:04;5.40;;;3.63;;
61915;SDS011;47868;51.326;6.550;2023-02-27T01:59:32;5.03;;;3.30;;
61915;SDS011;47868;51.326;6.550;2023-02-27T02:01:58;6.43;;;4.00;;
61915;SDS011;47868;51.326;6.550;2023-02-27T02:07:04;5.90;;;3.60;;
61915;SDS011;47868;51.326;6.550;2023-02-27T02:09:33;10.30;;;3.10;;
61915;SDS011;47868;51.326;6.550;2023-02-27T02:12:00;8.00;;;3.57;;
61915;SDS011;47868;51.326;6.550;2023-02-27T02:14:26;6.67;;;3.53;;
61915;SDS011;47868;51.326;6.550;2023-02-27T02:42:41;14.37;;;3.53;;
61915;SDS011;47868;51.326;6.550;2023-02-27T02:52:52;8.13;;;3.83;;
61915;SDS011;47868;51.326;6.550;2023-02-27T03:00:24;8.00;;;3.70;;
61915;SDS011;47868;51.326;6.550;2023-02-27T03:02:57;8.33;;;3.63;;
61915;SDS011;47868;51.326;6.550;2023-02-27T03:05:31;7.00;;;3.87;;
61915;SDS011;47868;51.326;6.550;2023-02-27T03:08:01;5.97;;;3.93;;
61915;SDS011;47868;51.326;6.550;2023-02-27T03:10:29;6.07;;;3.47;;
61915;SDS011;47868;51.326;6.550;2023-02-27T03:12:59;5.67;;;3.30;;
61915;SDS011;47868;51.326;6.550;2023-02-27T03:15:34;5.83;;;3.00;;
61915;SDS011;47868;51.326;6.550;2023-02-27T03:18:07;4.33;;;3.93;;
61915;SDS011;47868;51.326;6.550;2023-02-27T03:20:41;5.57;;;3.60;;
61915;SDS011;47868;51.326;6.550;2023-02-27T03:23:13;4.90;;;3.60;;
61915;SDS011;47868;51.326;6.550;2023-02-27T03:25:42;4.63;;;3.40;;
61915;SDS011;47868;51.326;6.550;2023-02-27T03:28:11;10.73;;;3.93;;
61915;SDS011;47868;51.326;6.550;2023-02-27T03:33:06;8.27;;;4.00;;
61915;SDS011;47868;51.326;6.550;2023-02-27T03:35:54;7.87;;;3.93;;
61915;SDS011;47868;51.326;6.550;2023-02-27T03:38:23;5.53;;;3.80;;
61915;SDS011;47868;51.326;6.550;2023-02-27T03:43:43;5.77;;;3.80;;
61915;SDS011;47868;51.326;6.550;2023-02-27T03:46:15;9.03;;;3.90;;
61915;SDS011;47868;51.326;6.550;2023-02-27T03:48:41;5.23;;;3.67;;
61915;SDS011;47868;51.326;6.550;2023-02-27T03:51:15;6.03;;;3.50;;
61915;SDS011;47868;51.326;6.550;2023-02-27T03:54:05;7.37;;;3.47;;
61915;SDS011;47868;51.326;6.550;2023-02-27T03:56:35;5.03;;;3.47;;
61915;SDS011;47868;51.326;6.550;2023-02-27T03:59:03;11.23;;;3.80;;
61915;SDS011;47868;51.326;6.550;2023-02-27T04:01:29;6.77;;;4.20;;
61915;SDS011;47868;51.326;6.550;2023-02-27T04:04:00;7.33;;;4.23;;
61915;SDS011;47868;51.326;6.550;2023-02-27T04:06:27;4.10;;;3.30;;
61915;SDS011;47868;51.326;6.550;2023-02-27T04:09:24;5.90;;;3.83;;
61915;SDS011;47868;51.326;6.550;2023-02-27T04:11:59;10.10;;;3.63;;
61915;SDS011;47868;51.326;6.550;2023-02-27T04:14:39;7.13;;;3.80;;
61915;SDS011;47868;51.326;6.550;2023-02-27T04:17:15;5.27;;;3.87;;
61915;SDS011;47868;51.326;6.550;2023-02-27T04:22:25;9.83;;;4.33;;
61915;SDS011;47868;51.326;6.550;2023-02-27T04:32:55;7.17;;;4.33;;
61915;SDS011;47868;51.326;6.550;2023-02-27T04:35:24;6.53;;;4.37;;
61915;SDS011;47868;51.326;6.550;2023-02-27T04:40:41;10.67;;;4.50;;
61915;SDS011;47868;51.326;6.550;2023-02-27T04:43:08;9.10;;;4.73;;
61915;SDS011;47868;51.326;6.550;2023-02-27T04:45:35;8.80;;;4.37;;
61915;SDS011;47868;51.326;6.550;2023-02-27T04:48:04;7.17;;;4.30;;
61915;SDS011;47868;51.326;6.550;2023-02-27T04:50:43;11.10;;;4.67;;
61915;SDS011;47868;51.326;6.550;2023-02-27T04:53:12;8.43;;;4.90;;
61915;SDS011;47868;51.326;6.550;2023-02-27T04:55:44;9.03;;;5.10;;
61915;SDS011;47868;51.326;6.550;2023-02-27T04:58:17;8.73;;;5.60;;
61915;SDS011;47868;51.326;6.550;2023-02-27T05:00:45;11.70;;;5.13;;
61915;SDS011;47868;51.326;6.550;2023-02-27T05:03:17;7.90;;;5.03;;
61915;SDS011;47868;51.326;6.550;2023-02-27T05:05:44;12.80;;;5.20;;
61915;SDS011;47868;51.326;6.550;2023-02-27T05:08:16;8.13;;;4.10;;
61915;SDS011;47868;51.326;6.550;2023-02-27T05:10:45;11.20;;;5.80;;
61915;SDS011;47868;51.326;6.550;2023-02-27T05:13:14;12.90;;;5.70;;
61915;SDS011;47868;51.326;6.550;2023-02-27T05:15:45;7.63;;;5.27;;
61915;SDS011;47868;51.326;6.550;2023-02-27T05:18:13;8.00;;;5.20;;
61915;SDS011;47868;51.326;6.550;2023-02-27T05:21:04;8.80;;;5.30;;
61915;SDS011;47868;51.326;6.550;2023-02-27T05:31:08;9.40;;;5.47;;
61915;SDS011;47868;51.326;6.550;2023-02-27T05:33:44;8.57;;;5.37;;
61915;SDS011;47868;51.326;6.550;2023-02-27T05:36:13;12.73;;;5.00;;
61915;SDS011;47868;51.326;6.550;2023-02-27T05:38:54;7.07;;;5.13;;
61915;SDS011;47868;51.326;6.550;2023-02-27T05:41:24;8.53;;;5.30;;
61915;SDS011;47868;51.326;6.550;2023-02-27T05:44:00;9.63;;;5.20;;
61915;SDS011;47868;51.326;6.550;2023-02-27T05:46:28;7.90;;;5.10;;
61915;SDS011;47868;51.326;6.550;2023-02-27T05:48:56;7.87;;;5.43;;
61915;SDS011;47868;51.326;6.550;2023-02-27T05:51:25;9.40;;;5.50;;
61915;SDS011;47868;51.326;6.550;2023-02-27T05:53:55;11.27;;;5.60;;
61915;SDS011;47868;51.326;6.550;2023-02-27T05:56:22;7.37;;;5.00;;
61915;SDS011;47868;51.326;6.550;2023-02-27T05:58:54;8.23;;;5.00;;
61915;SDS011;47868;51.326;6.550;2023-02-27T06:01:23;8.70;;;5.10;;
61915;SDS011;47868;51.326;6.550;2023-02-27T06:03:49;10.77;;;5.60;;
61915;SDS011;47868;51.326;6.550;2023-02-27T06:06:16;9.63;;;5.30;;
61915;SDS011;47868;51.326;6.550;2023-02-27T06:08:43;6.67;;;4.67;;
61915;SDS011;47868;51.326;6.550;2023-02-27T06:11:09;9.37;;;5.27;;
61915;SDS011;47868;51.326;6.550;2023-02-27T06:13:35;8.90;;;6.10;;
61915;SDS011;47868;51.326;6.550;2023-02-27T06:16:01;9.23;;;5.27;;
61915;SDS011;47868;51.326;6.550;2023-02-27T06:18:27;10.30;;;5.60;;
61915;SDS011;47868;51.326;6.550;2023-02-27T06:20:56;6.93;;;5.63;;
61915;SDS011;47868;51.326;6.550;2023-02-27T06:23:22;9.67;;;5.20;;
61915;SDS011;47868;51.326;6.550;2023-02-27T06:25:48;11.93;;;5.40;;
61915;SDS011;47868;51.326;6.550;2023-02-27T06:28:14;7.93;;;5.23;;
61915;SDS011;47868;51.326;6.550;2023-02-27T06:30:40;9.30;;;5.47;;
61915;SDS011;47868;51.326;6.550;2023-02-27T06:33:06;19.13;;;10.27;;
61915;SDS011;47868;51.326;6.550;2023-02-27T06:35:33;12.00;;;8.70;;
61915;SDS011;47868;51.326;6.550;2023-02-27T06:37:59;18.03;;;7.63;;
61915;SDS011;47868;51.326;6.550;2023-02-27T06:40:25;14.20;;;6.93;;
61915;SDS011;47868;51.326;6.550;2023-02-27T06:42:51;7.67;;;6.30;;
61915;SDS011;47868;51.326;6.550;2023-02-27T06:45:17;13.50;;;5.67;;
61915;SDS011;47868;51.326;6.550;2023-02-27T06:47:43;9.57;;;5.43;;
61915;SDS011;47868;51.326;6.550;2023-02-27T06:50:12;10.97;;;5.53;;
61915;SDS011;47868;51.326;6.550;2023-02-27T06:52:41;8.40;;;5.17;;
61915;SDS011;47868;51.326;6.550;2023-02-27T06:55:07;8.33;;;5.33;;
61915;SDS011;47868;51.326;6.550;2023-02-27T06:57:33;5.63;;;4.83;;
61915;SDS011;47868;51.326;6.550;2023-02-27T07:00:00;9.77;;;5.50;;
61915;SDS011;47868;51.326;6.550;2023-02-27T07:02:26;7.67;;;5.37;;
61915;SDS011;47868;51.326;6.550;2023-02-27T07:04:52;13.87;;;5.60;;
61915;SDS011;47868;51.326;6.550;2023-02-27T07:07:18;7.17;;;5.33;;
61915;SDS011;47868;51.326;6.550;2023-02-27T07:09:44;17.93;;;5.53;;
61915;SDS011;47868;51.326;6.550;2023-02-27T07:12:10;11.03;;;5.63;;
61915;SDS011;47868;51.326;6.550;2023-02-27T07:14:36;11.60;;;5.40;;
61915;SDS011;47868;51.326;6.550;2023-02-27T07:17:02;7.90;;;5.60;;
61915;SDS011;47868;51.326;6.550;2023-02-27T07:19:29;9.43;;;5.73;;
61915;SDS011;47868;51.326;6.550;2023-02-27T07:21:56;7.93;;;4.93;;
61915;SDS011;47868;51.326;6.550;2023-02-27T07:24:22;7.77;;;5.13;;
61915;SDS011;47868;51.326;6.550;2023-02-27T07:26:48;9.57;;;5.90;;
61915;SDS011;47868;51.326;6.550;2023-02-27T07:29:14;11.70;;;6.37;;
61915;SDS011;47868;51.326;6.550;2023-02-27T07:31:40;7.90;;;5.03;;
61915;SDS011;47868;51.326;6.550;2023-02-27T07:34:06;11.20;;;5.70;;
61915;SDS011;47868;51.326;6.550;2023-02-27T07:36:35;10.37;;;6.00;;
61915;SDS011;47868;51.326;6.550;2023-02-27T07:39:02;10.13;;;5.90;;
61915;SDS011;47868;51.326;6.550;2023-02-27T07:41:29;8.33;;;5.93;;
61915;SDS011;47868;51.326;6.550;2023-02-27T07:43:55;17.13;;;6.60;;
61915;SDS011;47868;51.326;6.550;2023-02-27T07:46:21;8.50;;;5.70;;
61915;SDS011;47868;51.326;6.550;2023-02-27T07:48:48;12.00;;;6.10;;
61915;SDS011;47868;51.326;6.550;2023-02-27T07:51:14;7.40;;;5.30;;
61915;SDS011;47868;51.326;6.550;2023-02-27T07:53:40;12.80;;;6.03;;
61915;SDS011;47868;51.326;6.550;2023-02-27T07:56:06;9.77;;;5.57;;
61915;SDS011;47868;51.326;6.550;2023-02-27T07:58:32;10.03;;;5.77;;
61915;SDS011;47868;51.326;6.550;2023-02-27T08:00:59;9.80;;;4.93;;
61915;SDS011;47868;51.326;6.550;2023-02-27T08:03:25;9.43;;;5.93;;
61915;SDS011;47868;51.326;6.550;2023-02-27T08:05:51;10.57;;;6.40;;
61915;SDS011;47868;51.326;6.550;2023-02-27T08:08:17;8.97;;;5.33;;
61915;SDS011;47868;51.326;6.550;2023-02-27T08:10:43;14.17;;;6.07;;
61915;SDS011;47868;51.326;6.550;2023-02-27T08:13:09;13.13;;;6.27;;
61915;SDS011;47868;51.326;6.550;2023-02-27T08:15:35;16.63;;;6.97;;
61915;SDS011;47868;51.326;6.550;2023-02-27T08:18:01;10.20;;;5.87;;
61915;SDS011;47868;51.326;6.550;2023-02-27T08:20:27;13.70;;;6.20;;
61915;SDS011;47868;51.326;6.550;2023-02-27T08:22:53;9.00;;;5.60;;
61915;SDS011;47868;51.326;6.550;2023-02-27T08:25:19;8.83;;;6.03;;
61915;SDS011;47868;51.326;6.550;2023-02-27T08:27:45;16.03;;;7.40;;
61915;SDS011;47868;51.326;6.550;2023-02-27T08:30:12;13.87;;;6.83;;
61915;SDS011;47868;51.326;6.550;2023-02-27T08:32:38;10.17;;;6.17;;
61915;SDS011;47868;51.326;6.550;2023-02-27T08:35:04;10.07;;;6.33;;
61915;SDS011;47868;51.326;6.550;2023-02-27T08:37:31;11.00;;;6.10;;
61915;SDS011;47868;51.326;6.550;2023-02-27T08:39:57;15.47;;;6.93;;
61915;SDS011;47868;51.326;6.550;2023-02-27T08:42:23;14.57;;;6.90;;
61915;SDS011;47868;51.326;6.550;2023-02-27T08:44:49;15.40;;;6.77;;
61915;SDS011;47868;51.326;6.550;2023-02-27T08:47:15;13.43;;;6.80;;
61915;SDS011;47868;51.326;6.550;2023-02-27T08:49:41;12.67;;;6.53;;
61915;SDS011;47868;51.326;6.550;2023-02-27T08:52:07;13.37;;;6.57;;
61915;SDS011;47868;51.326;6.550;2023-02-27T08:54:34;11.77;;;6.90;;
61915;SDS011;47868;51.326;6.550;2023-02-27T08:57:01;20.00;;;6.97;;
61915;SDS011;47868;51.326;6.550;2023-02-27T08:59:27;9.50;;;6.33;;
61915;SDS011;47868;51.326;6.550;2023-02-27T09:01:53;9.87;;;6.47;;
61915;SDS011;47868;51.326;6.550;2023-02-27T09:04:19;15.03;;;7.37;;
61915;SDS011;47868;51.326;6.550;2023-02-27T09:06:45;15.00;;;6.43;;
61915;SDS011;47868;51.326;6.550;2023-02-27T09:09:12;11.73;;;6.73;;
61915;SDS011;47868;51.326;6.550;2023-02-27T09:11:38;12.37;;;6.60;;
61915;SDS011;47868;51.326;6.550;2023-02-27T09:14:04;12.70;;;6.27;;
61915;SDS011;47868;51.326;6.550;2023-02-27T09:16:30;14.27;;;6.20;;
61915;SDS011;47868;51.326;6.550;2023-02-27T09:18:57;11.43;;;5.80;;
61915;SDS011;47868;51.326;6.550;2023-02-27T09:21:23;15.03;;;6.00;;
61915;SDS011;47868;51.326;6.550;2023-02-27T09:23:50;10.30;;;5.80;;
61915;SDS011;47868;51.326;6.550;2023-02-27T09:26:17;9.90;;;5.87;;
61915;SDS011;47868;51.326;6.550;2023-02-27T09:28:43;8.77;;;5.33;;
61915;SDS011;47868;51.326;6.550;2023-02-27T09:31:09;8.27;;;4.97;;
61915;SDS011;47868;51.326;6.550;2023-02-27T09:33:36;12.93;;;4.70;;
61915;SDS011;47868;51.326;6.550;2023-02-27T09:36:03;10.97;;;5.03;;
61915;SDS011;47868;51.326;6.550;2023-02-27T09:38:30;7.47;;;4.60;;
61915;SDS011;47868;51.326;6.550;2023-02-27T09:40:56;9.53;;;5.27;;
61915;SDS011;47868;51.326;6.550;2023-02-27T09:43:33;6.50;;;4.80;;
61915;SDS011;47868;51.326;6.550;2023-02-27T09:46:00;9.38;;;5.50;;
61915;SDS011;47868;51.326;6.550;2023-02-27T09:48:28;8.20;;;4.97;;
61915;SDS011;47868;51.326;6.550;2023-02-27T09:50:54;9.45;;;5.40;;
61915;SDS011;47868;51.326;6.550;2023-02-27T09:53:21;12.82;;;5.57;;
61915;SDS011;47868;51.326;6.550;2023-02-27T09:55:51;9.20;;;4.90;;
61915;SDS011;47868;51.326;6.550;2023-02-27T10:01:20;5.68;;;3.80;;
61915;SDS011;47868;51.326;6.550;2023-02-27T10:04:03;13.18;;;4.00;;
61915;SDS011;47868;51.326;6.550;2023-02-27T10:09:47;7.35;;;3.70;;
61915;SDS011;47868;51.326;6.550;2023-02-27T10:12:40;7.13;;;3.72;;
61915;SDS011;47868;51.326;6.550;2023-02-27T10:15:20;6.10;;;3.70;;
61915;SDS011;47868;51.326;6.550;2023-02-27T10:20:38;12.27;;;3.75;;
61915;SDS011;47868;51.326;6.550;2023-02-27T10:23:10;5.75;;;3.30;;
61915;SDS011;47868;51.326;6.550;2023-02-27T10:25:40;5.28;;;3.38;;
61915;SDS011;47868;51.326;6.550;2023-02-27T10:28:15;10.07;;;3.08;;
61915;SDS011;47868;51.326;6.550;2023-02-27T10:30:46;5.65;;;3.00;;
61915;SDS011;47868;51.326;6.550;2023-02-27T10:33:18;6.35;;;3.15;;
61915;SDS011;47868;51.326;6.550;2023-02-27T10:35:48;5.07;;;3.75;;
61915;SDS011;47868;51.326;6.550;2023-02-27T10:40:55;8.93;;;4.38;;
61915;SDS011;47868;51.326;6.550;2023-02-27T10:43:22;13.45;;;4.75;;
61915;SDS011;47868;51.326;6.550;2023-02-27T10:45:48;6.88;;;3.70;;
61915;SDS011;47868;51.326;6.550;2023-02-27T10:48:14;11.15;;;3.35;;
61915;SDS011;47868;51.326;6.550;2023-02-27T10:50:41;9.45;;;3.78;;
61915;SDS011;47868;51.326;6.550;2023-02-27T10:55:59;6.03;;;3.10;;
61915;SDS011;47868;51.326;6.550;2023-02-27T10:58:28;7.13;;;2.80;;
61915;SDS011;47868;51.326;6.550;2023-02-27T11:00:57;5.65;;;2.95;;
61915;SDS011;47868;51.326;6.550;2023-02-27T11:03:26;10.32;;;3.33;;
61915;SDS011;47868;51.326;6.550;2023-02-27T11:06:12;12.48;;;3.25;;
61915;SDS011;47868;51.326;6.550;2023-02-27T11:08:44;5.03;;;2.97;;
61915;SDS011;47868;51.326;6.550;2023-02-27T11:11:46;6.68;;;3.15;;
61915;SDS011;47868;51.326;6.550;2023-02-27T11:14:22;8.77;;;3.10;;
61915;SDS011;47868;51.326;6.550;2023-02-27T11:16:53;8.52;;;4.32;;
61915;SDS011;47868;51.326;6.550;2023-02-27T11:19:37;2.58;;;2.35;;
61915;SDS011;47868;51.326;6.550;2023-02-27T11:24:49;11.95;;;7.03;;
61915;SDS011;47868;51.326;6.550;2023-02-27T11:27:20;9.13;;;4.32;;
61915;SDS011;47868;51.326;6.550;2023-02-27T11:30:01;8.60;;;2.92;;
61915;SDS011;47868;51.326;6.550;2023-02-27T11:32:45;6.50;;;2.55;;
61915;SDS011;47868;51.326;6.550;2023-02-27T11:37:51;6.45;;;4.28;;
61915;SDS011;47868;51.326;6.550;2023-02-27T11:40:19;8.82;;;5.55;;
61915;SDS011;47868;51.326;6.550;2023-02-27T11:48:01;3.15;;;2.30;;
61915;SDS011;47868;51.326;6.550;2023-02-27T11:56:18;5.90;;;4.03;;
61915;SDS011;47868;51.326;6.550;2023-02-27T11:59:00;4.70;;;3.30;;
61915;SDS011;47868;51.326;6.550;2023-02-27T12:01:53;4.95;;;3.05;;
61915;SDS011;47868;51.326;6.550;2023-02-27T12:07:45;4.60;;;2.90;;
61915;SDS011;47868;51.326;6.550;2023-02-27T12:10:15;5.13;;;3.53;;
61915;SDS011;47868;51.326;6.550;2023-02-27T12:15:28;4.60;;;3.38;;
61915;SDS011;47868;51.326;6.550;2023-02-27T12:18:02;5.93;;;4.00;;
61915;SDS011;47868;51.326;6.550;2023-02-27T12:20:37;8.23;;;3.80;;
61915;SDS011;47868;51.326;6.550;2023-02-27T12:23:28;4.60;;;3.25;;
61915;SDS011;47868;51.326;6.550;2023-02-27T12:25:59;7.80;;;2.75;;
61915;SDS011;47868;51.326;6.550;2023-02-27T12:34:02;3.15;;;2.53;;
61915;SDS011;47868;51.326;6.550;2023-02-27T12:36:34;4.88;;;2.58;;
61915;SDS011;47868;51.326;6.550;2023-02-27T12:39:00;4.57;;;2.22;;
61915;SDS011;47868;51.326;6.550;2023-02-27T12:41:32;8.50;;;2.65;;
61915;SDS011;47868;51.326;6.550;2023-02-27T12:46:29;3.53;;;2.42;;
61915;SDS011;47868;51.326;6.550;2023-02-27T12:55:00;4.10;;;2.40;;
61915;SDS011;47868;51.326;6.550;2023-02-27T12:57:36;6.90;;;2.80;;
61915;SDS011;47868;51.326;6.550;2023-02-27T13:00:11;4.25;;;2.65;;
61915;SDS011;47868;51.326;6.550;2023-02-27T13:19:13;5.13;;;2.85;;
61915;SDS011;47868;51.326;6.550;2023-02-27T13:21:44;6.93;;;3.33;;
61915;SDS011;47868;51.326;6.550;2023-02-27T13:27:06;4.93;;;2.60;;
61915;SDS011;47868;51.326;6.550;2023-02-27T13:29:35;6.93;;;2.65;;
61915;SDS011;47868;51.326;6.550;2023-02-27T13:34:29;4.97;;;2.33;;
61915;SDS011;47868;51.326;6.550;2023-02-27T13:37:02;10.15;;;2.30;;
61915;SDS011;47868;51.326;6.550;2023-02-27T13:45:00;4.78;;;2.15;;
61915;SDS011;47868;51.326;6.550;2023-02-27T13:50:03;5.30;;;2.90;;
61915;SDS011;47868;51.326;6.550;2023-02-27T13:52:31;6.95;;;2.30;;
61915;SDS011;47868;51.326;6.550;2023-02-27T13:54:58;2.88;;;2.00;;
61915;SDS011;47868;51.326;6.550;2023-02-27T13:57:31;9.30;;;2.50;;
61915;SDS011;47868;51.326;6.550;2023-02-27T13:59:59;4.95;;;2.03;;
61915;SDS011;47868;51.326;6.550;2023-02-27T14:05:05;5.68;;;2.38;;
61915;SDS011;47868;51.326;6.550;2023-02-27T14:07:47;4.07;;;1.92;;
61915;SDS011;47868;51.326;6.550;2023-02-27T14:10:27;5.53;;;2.17;;
61915;SDS011;47868;51.326;6.550;2023-02-27T14:12:55;3.30;;;2.05;;
61915;SDS011;47868;51.326;6.550;2023-02-27T14:17:48;5.45;;;2.50;;
61915;SDS011;47868;51.326;6.550;2023-02-27T14:25:36;15.30;;;3.28;;
61915;SDS011;47868;51.326;6.550;2023-02-27T14:28:03;2.72;;;1.60;;
61915;SDS011;47868;51.326;6.550;2023-02-27T14:30:31;4.47;;;2.10;;
61915;SDS011;47868;51.326;6.550;2023-02-27T14:33:10;5.78;;;2.10;;
61915;SDS011;47868;51.326;6.550;2023-02-27T14:35:38;3.53;;;2.13;;
61915;SDS011;47868;51.326;6.550;2023-02-27T14:38:09;2.22;;;1.95;;
61915;SDS011;47868;51.326;6.550;2023-02-27T14:40:38;5.18;;;2.33;;
61915;SDS011;47868;51.326;6.550;2023-02-27T14:45:37;4.25;;;2.28;;
61915;SDS011;47868;51.326;6.550;2023-02-27T14:48:04;3.50;;;2.25;;
61915;SDS011;47868;51.326;6.550;2023-02-27T14:50:34;4.75;;;2.05;;
61915;SDS011;47868;51.326;6.550;2023-02-27T14:53:02;8.15;;;2.50;;
61915;SDS011;47868;51.326;6.550;2023-02-27T14:55:36;3.15;;;2.10;;
61915;SDS011;47868;51.326;6.550;2023-02-27T14:58:13;4.57;;;2.05;;
61915;SDS011;47868;51.326;6.550;2023-02-27T15:03:19;5.47;;;2.50;;
61915;SDS011;47868;51.326;6.550;2023-02-27T15:05:47;6.75;;;2.60;;
61915;SDS011;47868;51.326;6.550;2023-02-27T15:08:17;6.47;;;2.50;;
61915;SDS011;47868;51.326;6.550;2023-02-27T15:10:45;4.65;;;2.30;;
61915;SDS011;47868;51.326;6.550;2023-02-27T15:13:31;4.70;;;2.05;;
61915;SDS011;47868;51.326;6.550;2023-02-27T15:18:44;4.05;;;2.90;;
61915;SDS011;47868;51.326;6.550;2023-02-27T15:21:13;5.90;;;3.42;;
61915;SDS011;47868;51.326;6.550;2023-02-27T15:23:40;4.40;;;2.97;;
61915;SDS011;47868;51.326;6.550;2023-02-27T15:26:09;5.90;;;2.20;;
61915;SDS011;47868;51.326;6.550;2023-02-27T15:28:37;6.45;;;4.60;;
61915;SDS011;47868;51.326;6.550;2023-02-27T15:31:03;3.33;;;2.35;;
61915;SDS011;47868;51.326;6.550;2023-02-27T15:33:31;3.45;;;2.17;;
61915;SDS011;47868;51.326;6.550;2023-02-27T15:35:57;3.45;;;2.20;;
61915;SDS011;47868;51.326;6.550;2023-02-27T15:40:50;4.13;;;2.40;;
61915;SDS011;47868;51.326;6.550;2023-02-27T15:43:16;4.72;;;3.38;;
61915;SDS011;47868;51.326;6.550;2023-02-27T15:45:43;5.30;;;3.22;;
61915;SDS011;47868;51.326;6.550;2023-02-27T15:48:12;3.92;;;3.38;;
61915;SDS011;47868;51.326;6.550;2023-02-27T15:50:53;4.97;;;3.13;;
61915;SDS011;47868;51.326;6.550;2023-02-27T15:53:20;5.75;;;3.25;;
61915;SDS011;47868;51.326;6.550;2023-02-27T15:55:54;5.63;;;3.05;;
61915;SDS011;47868;51.326;6.550;2023-02-27T15:58:24;4.35;;;2.90;;
61915;SDS011;47868;51.326;6.550;2023-02-27T16:00:52;3.65;;;3.00;;
61915;SDS011;47868;51.326;6.550;2023-02-27T16:03:24;8.93;;;2.80;;
61915;SDS011;47868;51.326;6.550;2023-02-27T16:05:54;4.78;;;3.60;;
61915;SDS011;47868;51.326;6.550;2023-02-27T16:08:21;6.70;;;3.75;;
61915;SDS011;47868;51.326;6.550;2023-02-27T16:10:47;4.43;;;3.05;;
61915;SDS011;47868;51.326;6.550;2023-02-27T16:13:21;5.70;;;3.20;;
61915;SDS011;47868;51.326;6.550;2023-02-27T16:15:57;4.70;;;3.13;;
61915;SDS011;47868;51.326;6.550;2023-02-27T16:18:33;5.88;;;3.10;;
61915;SDS011;47868;51.326;6.550;2023-02-27T16:21:09;4.93;;;3.20;;
61915;SDS011;47868;51.326;6.550;2023-02-27T16:23:35;10.05;;;3.30;;
61915;SDS011;47868;51.326;6.550;2023-02-27T16:28:31;4.03;;;2.67;;
61915;SDS011;47868;51.326;6.550;2023-02-27T16:30:58;6.05;;;2.97;;
61915;SDS011;47868;51.326;6.550;2023-02-27T16:33:24;3.72;;;2.58;;
61915;SDS011;47868;51.326;6.550;2023-02-27T16:36:02;3.90;;;2.50;;
61915;SDS011;47868;51.326;6.550;2023-02-27T16:38:29;4.90;;;2.95;;
61915;SDS011;47868;51.326;6.550;2023-02-27T16:40:55;4.53;;;3.05;;
61915;SDS011;47868;51.326;6.550;2023-02-27T16:43:21;4.93;;;2.65;;
61915;SDS011;47868;51.326;6.550;2023-02-27T16:45:50;4.70;;;2.63;;
61915;SDS011;47868;51.326;6.550;2023-02-27T16:48:16;5.72;;;3.28;;
61915;SDS011;47868;51.326;6.550;2023-02-27T16:50:42;4.55;;;3.05;;
61915;SDS011;47868;51.326;6.550;2023-02-27T16:53:08;5.60;;;2.97;;
61915;SDS011;47868;51.326;6.550;2023-02-27T16:55:37;9.07;;;3.47;;
61915;SDS011;47868;51.326;6.550;2023-02-27T16:58:03;6.70;;;3.72;;
61915;SDS011;47868;51.326;6.550;2023-02-27T17:00:30;6.72;;;3.45;;
61915;SDS011;47868;51.326;6.550;2023-02-27T17:02:58;6.25;;;4.15;;
61915;SDS011;47868;51.326;6.550;2023-02-27T17:05:24;9.50;;;3.88;;
61915;SDS011;47868;51.326;6.550;2023-02-27T17:07:50;5.57;;;4.70;;
61915;SDS011;47868;51.326;6.550;2023-02-27T17:10:18;9.13;;;4.40;;
61915;SDS011;47868;51.326;6.550;2023-02-27T17:12:45;6.70;;;4.97;;
61915;SDS011;47868;51.326;6.550;2023-02-27T17:15:12;5.28;;;3.58;;
61915;SDS011;47868;51.326;6.550;2023-02-27T17:17:38;5.45;;;4.78;;
61915;SDS011;47868;51.326;6.550;2023-02-27T17:20:05;7.25;;;4.97;;
61915;SDS011;47868;51.326;6.550;2023-02-27T17:22:33;8.40;;;4.32;;
61915;SDS011;47868;51.326;6.550;2023-02-27T17:25:00;11.57;;;5.30;;
61915;SDS011;47868;51.326;6.550;2023-02-27T17:27:26;8.05;;;3.72;;
61915;SDS011;47868;51.326;6.550;2023-02-27T17:29:52;6.05;;;3.65;;
61915;SDS011;47868;51.326;6.550;2023-02-27T17:32:18;5.50;;;3.75;;
61915;SDS011;47868;51.326;6.550;2023-02-27T17:34:44;8.00;;;3.72;;
61915;SDS011;47868;51.326;6.550;2023-02-27T17:37:10;6.03;;;2.90;;
61915;SDS011;47868;51.326;6.550;2023-02-27T17:39:36;4.55;;;2.53;;
61915;SDS011;47868;51.326;6.550;2023-02-27T17:42:03;7.32;;;3.08;;
61915;SDS011;47868;51.326;6.550;2023-02-27T17:44:29;5.40;;;2.92;;
61915;SDS011;47868;51.326;6.550;2023-02-27T17:46:55;6.75;;;3.75;;
61915;SDS011;47868;51.326;6.550;2023-02-27T17:49:21;6.05;;;3.20;;